Time;durP1;ratioP1;P1;durP2;ratioP2;P2;SDS_P1;SDS_P2;PMS_P1;PMS_P2;Temp;Humidity;BMP_temperature;BMP_pressure;BME280_temperature;BME280_humidity;BME280_pressure;Samples;Min_cycle;Max_cycle;Signal;HPM_P1;HPM_P2
2023/07/08 00:00:58;;;;;;;19.73;11.60;;;;;;;21.68;81.89;100126.28;125338;1099;102271;-78
2023/07/08 00:03:47;;;;;;;19.97;11.70;;;;;;;21.69;82.05;100119.14;125469;1099;101816;-78
2023/07/08 00:06:21;;;;;;;19.03;11.93;;;;;;;21.73;82.53;100120.86;124901;1099;104189;-78
2023/07/08 00:08:52;;;;;;;19.63;11.73;;;;;;;21.75;81.46;100116.38;125340;1098;104371;-79
2023/07/08 00:11:24;;;;;;;19.30;12.17;;;;;;;21.75;81.71;100116.38;125418;1099;102112;-78
2023/07/08 00:13:55;;;;;;;20.17;11.80;;;;;;;21.78;82.45;100113.65;125442;1099;104235;-78
2023/07/08 00:16:28;;;;;;;21.53;11.63;;;;;;;21.80;82.76;100121.64;125469;1099;104176;-78
2023/07/08 00:18:59;;;;;;;21.90;11.80;;;;;;;21.80;82.79;100121.64;125452;1099;104166;-79
2023/07/08 00:21:31;;;;;;;20.67;11.97;;;;;;;21.81;82.36;100123.41;125489;1099;104198;-77
2023/07/08 00:24:02;;;;;;;21.60;12.07;;;;;;;21.79;83.20;100120.77;125425;1099;101971;-78
2023/07/08 00:26:34;;;;;;;19.67;12.53;;;;;;;21.77;83.08;100127.02;125444;1099;102027;-78
2023/07/08 00:29:09;;;;;;;20.75;12.10;;;;;;;21.73;83.50;100123.53;125302;1099;101856;-78
2023/07/08 00:31:40;;;;;;;20.47;12.07;;;;;;;21.67;83.65;100132.52;125284;1099;103032;-78
2023/07/08 00:34:11;;;;;;;21.83;12.30;;;;;;;21.61;83.69;100132.61;125335;1099;102494;-77
2023/07/08 00:36:43;;;;;;;23.03;12.87;;;;;;;21.57;83.73;100132.71;125403;1098;102075;-77
2023/07/08 00:39:17;;;;;;;23.67;13.70;;;;;;;21.47;84.57;100124.81;125410;1099;104251;-78
2023/07/08 00:41:54;;;;;;;20.90;13.70;;;;;;;21.37;84.23;100126.70;125449;1099;101906;-77
2023/07/08 00:44:25;;;;;;;24.07;14.33;;;;;;;21.28;84.47;100118.83;125544;1099;104166;-77
2023/07/08 00:47:09;;;;;;;22.77;14.37;;;;;;;21.19;84.09;100121.63;125854;1099;101933;-78
2023/07/08 00:49:44;;;;;;;24.92;14.63;;;;;;;21.10;85.27;100132.42;125497;1099;104211;-77
2023/07/08 00:52:27;;;;;;;21.73;14.37;;;;;;;21.04;84.76;100129.88;125521;1099;104229;-77
2023/07/08 00:55:02;;;;;;;22.60;14.83;;;;;;;20.95;85.14;100136.20;125382;1099;104342;-77
2023/07/08 00:57:37;;;;;;;24.23;15.30;;;;;;;20.87;85.69;100130.95;125118;1099;102128;-76
2023/07/08 01:00:12;;;;;;;27.57;15.87;;;;;;;20.80;85.78;100132.83;125429;1099;104172;-76
2023/07/08 01:02:47;;;;;;;24.43;15.77;;;;;;;20.75;85.72;100136.44;125496;1099;107494;-77
2023/07/08 01:05:23;;;;;;;25.20;16.10;;;;;;;20.70;86.65;100141.82;125387;1099;102006;-77
2023/07/08 01:08:00;;;;;;;22.83;15.93;;;;;;;20.64;87.60;100140.09;124987;1099;102093;-78
2023/07/08 01:10:40;;;;;;;23.97;16.17;;;;;;;20.62;88.01;100138.34;125428;1099;102365;-77
2023/07/08 01:13:15;;;;;;;22.80;15.73;;;;;;;20.53;87.87;100133.11;125498;1099;117847;-78
2023/07/08 01:15:48;;;;;;;23.30;15.30;;;;;;;20.53;88.61;100138.44;125521;1099;102015;-78
2023/07/08 01:18:22;;;;;;;25.08;16.25;;;;;;;20.50;88.11;100141.14;124944;1099;101901;-78
2023/07/08 01:20:55;;;;;;;24.75;16.07;;;;;;;20.47;88.41;100131.38;125427;1099;104303;-78
2023/07/08 01:23:27;;;;;;;24.30;16.37;;;;;;;20.47;88.33;100134.05;125475;1098;102302;-78
2023/07/08 01:26:00;;;;;;;23.63;16.47;;;;;;;20.47;89.90;100132.28;124945;1099;104163;-79
2023/07/08 01:28:32;;;;;;;25.67;15.63;;;;;;;20.44;88.24;100128.75;125406;1099;104234;-78
2023/07/08 01:31:04;;;;;;;24.30;15.83;;;;;;;20.45;89.86;100119.86;124999;1099;104147;-78
2023/07/08 01:33:36;;;;;;;24.53;15.40;;;;;;;20.44;90.24;100128.75;125508;1099;104208;-78
2023/07/08 01:36:09;;;;;;;23.40;16.43;;;;;;;20.41;90.18;100123.45;125579;1099;104169;-78
2023/07/08 01:38:41;;;;;;;24.15;15.10;;;;;;;20.41;90.39;100124.36;125518;1099;102016;-78
2023/07/08 01:41:16;;;;;;;23.93;16.00;;;;;;;20.41;90.67;100123.45;125606;1099;104210;-79
2023/07/08 01:43:48;;;;;;;25.97;16.03;;;;;;;20.41;90.83;100118.13;125504;1099;102218;-78
2023/07/08 01:46:23;;;;;;;25.07;16.37;;;;;;;20.39;90.88;100120.80;125031;1099;102127;-78
2023/07/08 01:48:58;;;;;;;23.60;16.27;;;;;;;20.40;90.74;100113.72;125567;1099;104208;-78
2023/07/08 01:51:29;;;;;;;24.67;15.60;;;;;;;20.39;91.34;100123.47;125577;1099;102029;-78
2023/07/08 01:54:02;;;;;;;22.37;14.33;;;;;;;20.40;91.97;100122.58;125492;1099;107639;-78
2023/07/08 01:56:33;;;;;;;22.50;14.67;;;;;;;20.38;90.93;100127.05;125582;1098;102223;-78
2023/07/08 01:59:04;;;;;;;22.03;14.27;;;;;;;20.40;91.23;100127.91;125368;1099;104197;-78
2023/07/08 02:01:35;;;;;;;21.80;14.10;;;;;;;20.40;90.92;100127.04;125490;1098;104232;-78
2023/07/08 02:04:07;;;;;;;22.17;14.87;;;;;;;20.38;91.56;100127.05;125430;1099;102553;-78
2023/07/08 02:06:38;;;;;;;24.03;14.80;;;;;;;20.35;91.31;100132.41;125551;1099;104185;-78
2023/07/08 02:09:12;;;;;;;25.03;14.47;;;;;;;20.32;92.15;100128.87;125482;1099;104669;-78
2023/07/08 02:11:43;;;;;;;23.87;14.10;;;;;;;20.29;92.28;100135.14;125297;1099;101877;-77
2023/07/08 02:14:15;;;;;;;22.37;14.37;;;;;;;20.24;92.48;100132.52;125417;1098;104166;-78
2023/07/08 02:16:46;;;;;;;22.40;14.03;;;;;;;20.20;92.37;100137.89;125494;1099;103022;-80
2023/07/08 02:19:17;;;;;;;23.67;14.00;;;;;;;20.19;93.32;100133.45;125425;1099;102175;-79
2023/07/08 02:21:48;;;;;;;21.97;13.60;;;;;;;20.15;93.35;100129.95;125551;1099;104069;-79
2023/07/08 02:24:22;;;;;;;21.40;14.07;;;;;;;20.11;93.55;100137.05;125087;1099;104195;-80
2023/07/08 02:26:53;;;;;;;22.52;14.30;;;;;;;20.05;93.23;100137.11;124942;1099;104203;-79
2023/07/08 02:29:25;;;;;;;26.43;14.70;;;;;;;20.03;93.64;100124.73;125490;1099;104258;-79
2023/07/08 02:31:56;;;;;;;24.00;14.10;;;;;;;20.00;93.15;100138.94;125451;1099;104362;-79
2023/07/08 02:34:27;;;;;;;25.47;14.20;;;;;;;19.96;93.92;100129.23;125439;1099;104246;-80
2023/07/08 02:36:58;;;;;;;23.23;13.67;;;;;;;19.95;94.15;100130.12;124944;1099;104303;-79
2023/07/08 02:39:30;;;;;;;23.27;13.90;;;;;;;19.89;94.23;100125.72;125504;1099;101897;-79
2023/07/08 02:42:02;;;;;;;21.47;13.30;;;;;;;19.88;95.09;100128.39;125440;1099;101940;-79
2023/07/08 02:44:33;;;;;;;23.30;13.83;;;;;;;19.82;95.45;100120.45;125313;1099;101946;-79
2023/07/08 02:47:04;;;;;;;21.43;13.63;;;;;;;19.80;95.50;100124.92;125456;1099;104245;-79
2023/07/08 02:49:37;;;;;;;25.20;13.93;;;;;;;19.77;94.76;100130.27;124986;1099;104242;-79
2023/07/08 02:52:08;;;;;;;22.70;13.20;;;;;;;19.74;95.33;100118.73;125417;1099;104175;-79
2023/07/08 02:54:40;;;;;;;22.50;12.67;;;;;;;19.74;95.67;100120.48;125373;1099;102355;-79
2023/07/08 02:57:11;;;;;;;20.30;12.27;;;;;;;19.72;96.74;100123.16;124897;1099;104373;-80
2023/07/08 02:59:42;;;;;;;21.73;13.53;;;;;;;19.72;96.35;100116.96;125475;1099;102186;-79
2023/07/08 03:02:13;;;;;;;19.17;11.67;;;;;;;19.69;96.74;100115.20;125430;1099;102051;-78
2023/07/08 03:04:45;;;;;;;19.53;12.00;;;;;;;19.68;97.71;100116.12;125526;1098;104224;-78
2023/07/08 03:07:17;;;;;;;20.53;11.30;;;;;;;19.67;97.04;100113.47;124892;1102;102028;-79
2023/07/08 03:09:48;;;;;;;22.07;11.10;;;;;;;19.67;98.20;100113.47;124959;1102;102645;-81
2023/07/08 03:12:19;;;;;;;19.17;10.83;;;;;;;19.59;97.83;100118.84;125789;1099;102080;-82
2023/07/08 03:14:51;;;;;;;18.30;10.63;;;;;;;19.55;98.33;100117.09;125970;1099;102086;-83
2023/07/08 03:17:22;;;;;;;18.60;10.33;;;;;;;19.50;98.44;100109.14;125683;1099;101830;-81
2023/07/08 03:19:54;;;;;;;21.90;11.00;;;;;;;19.47;97.93;100122.46;125592;1099;101946;-81
2023/07/08 03:22:25;;;;;;;19.43;11.17;;;;;;;19.47;98.57;100122.46;125627;1099;104056;-79
2023/07/08 03:24:56;;;;;;;21.07;10.90;;;;;;;19.45;98.28;100121.59;125254;1099;102385;-80
2023/07/08 03:27:27;;;;;;;21.55;10.70;;;;;;;19.48;99.07;100131.35;124970;1099;101913;-80
2023/07/08 03:29:59;;;;;;;20.97;10.70;;;;;;;19.49;99.03;100130.44;124958;1099;101942;-79
2023/07/08 03:32:31;;;;;;;21.33;10.57;;;;;;;19.48;99.43;100132.22;124985;1099;102493;-79
2023/07/08 03:35:02;;;;;;;27.73;11.17;;;;;;;19.48;99.43;100131.35;125653;1099;104162;-79
2023/07/08 03:37:33;;;;;;;22.47;9.97;;;;;;;19.43;99.68;100128.72;125507;1099;104257;-79
2023/07/08 03:40:05;;;;;;;18.77;10.23;;;;;;;19.40;100.00;100126.08;124927;1099;104201;-79
2023/07/08 03:42:37;;;;;;;17.70;10.40;;;;;;;19.38;99.38;100126.09;125509;1099;104146;-80
2023/07/08 03:45:10;;;;;;;18.30;10.33;;;;;;;19.37;100.00;100136.73;125232;1099;104274;-79
2023/07/08 03:47:41;;;;;;;21.90;9.75;;;;;;;19.35;100.00;100134.09;124948;1099;104201;-78
2023/07/08 03:50:20;;;;;;;17.93;9.83;;;;;;;19.34;99.77;100126.98;124948;1099;104275;-78
2023/07/08 03:52:53;;;;;;;21.20;10.23;;;;;;;19.33;99.62;100119.89;125516;1099;104165;-78
2023/07/08 03:55:25;;;;;;;20.43;9.90;;;;;;;19.35;100.00;100128.77;124886;1099;104294;-80
2023/07/08 03:57:57;;;;;;;17.57;10.17;;;;;;;19.33;100.00;100127.00;125424;1099;104169;-78
2023/07/08 04:00:28;;;;;;;18.67;10.43;;;;;;;19.31;100.00;100124.34;124852;1099;104319;-78
2023/07/08 04:03:01;;;;;;;18.42;10.25;;;;;;;19.27;100.00;100129.70;124947;1099;102047;-78
2023/07/08 04:05:32;;;;;;;23.50;11.80;;;;;;;19.26;100.00;100122.59;124936;1099;104175;-76
2023/07/08 04:08:04;;;;;;;21.03;11.60;;;;;;;19.24;100.00;100116.41;125366;1099;102057;-76
2023/07/08 04:10:35;;;;;;;22.60;11.90;;;;;;;19.22;100.00;100111.10;125441;1099;102022;-76
2023/07/08 04:13:06;;;;;;;22.27;11.67;;;;;;;19.17;100.00;100123.55;126322;1098;102235;-76
2023/07/08 04:15:38;;;;;;;20.60;11.97;;;;;;;19.18;100.00;100122.64;125564;1099;101816;-77
2023/07/08 04:18:09;;;;;;;25.47;12.73;;;;;;;19.15;100.00;100122.66;125789;1098;104166;-77
2023/07/08 04:20:40;;;;;;;21.37;12.73;;;;;;;19.15;100.00;100120.00;125994;1099;101824;-75
2023/07/08 04:23:12;;;;;;;22.00;12.47;;;;;;;19.14;100.00;100121.78;125873;1098;104266;-77
2023/07/08 04:25:43;;;;;;;21.10;12.70;;;;;;;19.14;100.00;100116.46;125256;1099;102242;-76
2023/07/08 04:28:14;;;;;;;21.40;11.80;;;;;;;19.16;100.00;100116.45;125237;1099;102029;-75
2023/07/08 04:30:46;;;;;;;21.90;11.87;;;;;;;19.16;100.00;100125.30;126156;1098;102010;-76
2023/07/08 04:33:18;;;;;;;20.87;12.20;;;;;;;19.18;100.00;100109.34;125696;1099;104169;-75
2023/07/08 04:35:49;;;;;;;20.53;11.30;;;;;;;19.18;100.00;100119.98;125355;1099;102368;-76
2023/07/08 04:38:23;;;;;;;21.70;12.03;;;;;;;19.18;100.00;100119.98;125397;1098;104179;-75
2023/07/08 04:40:53;;;;;;;;;;;;;;;19.17;100.00;100119.10;125076;1099;102798;-76
2023/07/08 04:43:28;;;;;;;22.03;11.60;;;;;;;19.19;100.00;100125.29;125378;1099;104219;-77
2023/07/08 04:46:00;;;;;;;20.03;11.77;;;;;;;19.18;100.00;100125.30;125456;1099;101829;-77
2023/07/08 04:48:32;;;;;;;18.93;11.47;;;;;;;19.20;100.00;100128.86;125476;1099;104201;-79
2023/07/08 04:51:04;;;;;;;18.83;10.47;;;;;;;19.19;100.00;100127.95;125361;1099;104377;-78
2023/07/08 04:53:35;;;;;;;17.23;10.40;;;;;;;19.18;100.00;100127.95;125551;1099;102701;-76
2023/07/08 04:56:06;;;;;;;16.53;9.97;;;;;;;19.16;100.00;100121.77;125571;1099;102518;-77
2023/07/08 04:58:37;;;;;;;16.57;9.67;;;;;;;19.13;100.00;100121.79;124904;1098;101847;-77
2023/07/08 05:01:09;;;;;;;16.43;9.67;;;;;;;19.11;100.00;100123.58;124936;1099;102552;-77
2023/07/08 05:03:40;;;;;;;19.53;9.83;;;;;;;19.11;100.00;100124.45;125490;1099;104271;-77
2023/07/08 05:06:11;;;;;;;22.47;9.50;;;;;;;19.09;100.00;100133.33;125130;1099;103006;-79
2023/07/08 05:08:42;;;;;;;17.57;9.20;;;;;;;19.06;100.00;100126.27;125281;1099;104201;-78
2023/07/08 05:11:14;;;;;;;15.70;8.60;;;;;;;19.04;100.00;100120.95;125335;1099;101804;-77
2023/07/08 05:13:45;;;;;;;17.90;9.53;;;;;;;19.03;100.00;100128.94;125363;1099;104176;-76
2023/07/08 05:16:16;;;;;;;16.23;8.83;;;;;;;19.02;100.00;100137.80;125233;1099;104432;-76
2023/07/08 05:18:48;;;;;;;16.87;8.43;;;;;;;19.03;100.00;100124.49;125288;1099;102119;-76
2023/07/08 05:21:21;;;;;;;17.87;9.13;;;;;;;19.02;100.00;100133.35;124826;1098;103296;-77
2023/07/08 05:23:53;;;;;;;14.93;8.30;;;;;;;19.02;100.00;100121.84;124906;1099;102016;-77
2023/07/08 05:26:24;;;;;;;16.37;8.27;;;;;;;18.98;100.00;100128.96;125454;1098;101950;-77
2023/07/08 05:28:56;;;;;;;13.00;7.55;;;;;;;18.97;100.00;100137.81;125501;1099;102299;-77
2023/07/08 05:31:27;;;;;;;14.27;8.07;;;;;;;18.92;100.00;100131.64;125344;1099;102270;-77
2023/07/08 05:33:58;;;;;;;13.80;7.47;;;;;;;18.92;100.00;100138.75;125431;1099;101886;-78
2023/07/08 05:36:30;;;;;;;14.63;7.30;;;;;;;18.88;100.00;100139.64;124970;1099;104169;-78
2023/07/08 05:39:01;;;;;;;14.93;7.03;;;;;;;18.85;100.00;100127.23;125175;1099;102161;-79
2023/07/08 05:41:32;;;;;;;12.20;6.53;;;;;;;18.80;100.00;100136.98;125446;1099;102243;-77
2023/07/08 05:44:03;;;;;;;13.27;7.23;;;;;;;18.78;100.00;100129.01;125537;1099;101938;-78
2023/07/08 05:46:37;;;;;;;10.40;6.30;;;;;;;18.79;100.00;100136.11;125547;1099;102092;-78
2023/07/08 05:49:08;;;;;;;14.28;7.00;;;;;;;18.77;100.00;100136.98;125588;1099;102253;-79
2023/07/08 05:51:40;;;;;;;12.23;7.20;;;;;;;18.75;100.00;100128.14;125394;1099;101918;-81
2023/07/08 05:54:11;;;;;;;12.80;7.53;;;;;;;18.73;100.00;100132.56;124894;1099;104310;-79
2023/07/08 05:56:42;;;;;;;15.30;7.53;;;;;;;18.69;100.00;100142.33;124979;1099;101911;-80
2023/07/08 05:59:13;;;;;;;15.80;8.20;;;;;;;18.64;100.00;100137.03;125444;1099;104243;-79
2023/07/08 06:01:45;;;;;;;16.20;8.20;;;;;;;18.61;100.00;100145.01;125633;1099;102006;-79
2023/07/08 06:04:16;;;;;;;15.10;8.67;;;;;;;18.58;100.00;100154.77;125591;1099;102648;-78
2023/07/08 06:06:47;;;;;;;14.53;8.37;;;;;;;18.55;100.00;100149.47;124914;1099;102198;-81
2023/07/08 06:09:21;;;;;;;16.57;9.00;;;;;;;18.51;100.00;100143.25;125453;1099;104294;-79
2023/07/08 06:11:52;;;;;;;16.53;8.90;;;;;;;18.52;100.00;100154.78;125588;1099;102191;-79
2023/07/08 06:14:23;;;;;;;18.20;9.57;;;;;;;18.52;100.00;100147.69;125577;1099;101893;-80
2023/07/08 06:16:55;;;;;;;16.07;9.90;;;;;;;18.49;100.00;100155.66;125616;1099;104382;-79
2023/07/08 06:19:27;;;;;;;15.63;9.33;;;;;;;18.46;100.00;100151.23;125580;1099;104220;-81
2023/07/08 06:21:58;;;;;;;18.90;10.83;;;;;;;18.46;100.00;100151.23;125592;1099;104201;-80
2023/07/08 06:24:29;;;;;;;17.60;10.37;;;;;;;18.44;100.00;100154.80;124991;1099;104240;-81
2023/07/08 06:27:01;;;;;;;19.20;9.60;;;;;;;18.43;100.00;100145.95;125452;1099;103236;-80
2023/07/08 06:29:32;;;;;;;19.10;10.00;;;;;;;18.40;100.00;100153.02;124928;1099;118595;-83
2023/07/08 06:32:04;;;;;;;17.50;9.97;;;;;;;18.38;100.00;100161.00;125527;1099;102038;-80
2023/07/08 06:34:35;;;;;;;18.85;10.55;;;;;;;18.38;100.00;100162.78;125518;1099;104164;-80
2023/07/08 06:37:07;;;;;;;16.97;9.27;;;;;;;18.37;100.00;100159.25;124919;1099;103099;-82
2023/07/08 06:39:39;;;;;;;16.93;9.73;;;;;;;18.37;100.00;100169.88;125415;1098;104214;-81
2023/07/08 06:42:10;;;;;;;16.27;8.63;;;;;;;18.35;100.00;100170.75;125564;1099;104179;-80
2023/07/08 06:44:50;;;;;;;16.17;8.77;;;;;;;18.31;100.00;100172.54;125134;1099;104470;-81
2023/07/08 06:47:22;;;;;;;17.33;9.30;;;;;;;18.25;100.00;100172.55;125405;1099;104255;-81
2023/07/08 06:49:54;;;;;;;15.80;8.47;;;;;;;18.22;100.00;100170.77;125445;1099;102058;-81
2023/07/08 06:52:25;;;;;;;16.75;9.10;;;;;;;18.18;100.00;100179.61;125453;1099;101994;-80
2023/07/08 06:54:56;;;;;;;14.50;8.10;;;;;;;18.17;100.00;100183.17;124934;1102;101990;-83
2023/07/08 06:57:28;;;;;;;14.03;8.00;;;;;;;18.15;100.00;100179.61;125529;1099;104261;-83
2023/07/08 06:59:59;;;;;;;15.95;8.10;;;;;;;18.15;100.00;100190.23;125489;1099;102504;-81
2023/07/08 07:02:31;;;;;;;14.37;8.00;;;;;;;18.14;100.00;100196.45;125446;1099;101817;-82
2023/07/08 07:05:02;;;;;;;14.67;8.33;;;;;;;18.11;100.00;100196.45;125540;1099;104161;-80
2023/07/08 07:07:34;;;;;;;14.85;8.20;;;;;;;18.10;100.00;100199.97;125169;1099;104179;-83
2023/07/08 07:10:07;;;;;;;19.33;8.50;;;;;;;18.10;100.00;100205.28;125600;1099;104242;-81
2023/07/08 07:12:39;;;;;;;16.73;8.58;;;;;;;18.11;100.00;100205.28;125613;1099;104236;-82
2023/07/08 07:15:11;;;;;;;15.47;7.97;;;;;;;18.09;100.00;100199.10;125681;1098;104236;-81
2023/07/08 07:17:42;;;;;;;13.23;7.80;;;;;;;18.08;100.00;100207.06;125794;1099;104265;-81
2023/07/08 07:20:15;;;;;;;15.97;8.43;;;;;;;18.12;100.00;100208.81;125342;1099;102201;-78
2023/07/08 07:22:47;;;;;;;16.80;8.50;;;;;;;18.11;100.00;100210.59;125648;1099;104057;-82
2023/07/08 07:25:19;;;;;;;15.80;8.97;;;;;;;18.11;100.00;100217.69;125551;1099;101874;-79
2023/07/08 07:27:50;;;;;;;15.83;9.10;;;;;;;18.09;100.00;100224.74;125487;1099;102115;-81
2023/07/08 07:30:22;;;;;;;15.87;9.30;;;;;;;18.07;100.00;100226.52;125624;1099;104208;-85
2023/07/08 07:32:53;;;;;;;19.03;10.23;;;;;;;18.06;100.00;100224.74;125057;1099;102053;-81
2023/07/08 07:35:25;;;;;;;18.33;9.80;;;;;;;18.04;100.00;100226.52;125640;1099;102028;-82
2023/07/08 07:37:56;;;;;;;17.23;10.07;;;;;;;18.03;100.00;100230.95;125672;1099;104265;-83
2023/07/08 07:40:27;;;;;;;17.27;9.67;;;;;;;17.99;100.00;100238.91;125495;1099;104204;-81
2023/07/08 07:42:58;;;;;;;18.73;10.00;;;;;;;17.98;100.00;100234.48;125048;1099;104320;-81
2023/07/08 07:45:30;;;;;;;18.10;10.53;;;;;;;17.95;100.00;100230.95;125324;1099;104195;-79
2023/07/08 07:48:01;;;;;;;21.27;10.37;;;;;;;18.01;100.00;100237.14;125301;1099;104160;-82
2023/07/08 07:50:34;;;;;;;18.37;10.37;;;;;;;18.03;100.00;100245.98;125137;1099;104214;-82
2023/07/08 07:53:05;;;;;;;18.33;10.70;;;;;;;18.04;100.00;100238.02;125445;1099;104178;-82
2023/07/08 07:55:36;;;;;;;19.37;11.03;;;;;;;18.05;100.00;100241.58;125619;1099;104109;-79
2023/07/08 07:58:11;;;;;;;19.23;10.60;;;;;;;18.05;100.00;100242.45;125475;1099;101953;-80
2023/07/08 08:00:42;;;;;;;18.23;10.73;;;;;;;18.05;100.00;100247.77;124966;1099;102120;-80
2023/07/08 08:03:16;;;;;;;19.47;11.13;;;;;;;18.05;100.00;100254.84;124973;1099;104259;-78
2023/07/08 08:05:46;;;;;;;;;;;;;;;18.03;100.00;100254.84;124977;1099;104249;-80
2023/07/08 08:08:17;;;;;;;19.37;10.90;;;;;;;18.08;100.00;100258.39;125417;1099;104192;-78
2023/07/08 08:10:48;;;;;;;19.70;10.37;;;;;;;18.10;100.00;100263.70;125461;1098;104226;-82
2023/07/08 08:13:20;;;;;;;19.00;10.83;;;;;;;18.10;100.00;100255.73;125541;1099;104157;-81
2023/07/08 08:15:56;;;;;;;20.60;11.60;;;;;;;18.11;100.00;100261.05;125620;1099;104184;-80
2023/07/08 08:18:27;;;;;;;19.40;10.93;;;;;;;18.11;100.00;100265.48;125041;1099;101842;-82
2023/07/08 08:20:59;;;;;;;19.87;10.57;;;;;;;18.11;100.00;100266.35;125478;1099;103295;-82
2023/07/08 08:23:30;;;;;;;21.33;10.93;;;;;;;18.17;100.00;100269.89;124968;1099;104343;-83
2023/07/08 08:26:01;;;;;;;20.27;11.20;;;;;;;18.22;100.00;100269.02;125421;1099;102227;-80
2023/07/08 08:28:33;;;;;;;20.77;11.00;;;;;;;18.27;100.00;100266.37;125451;1099;101878;-83
2023/07/08 08:31:04;;;;;;;19.67;11.83;;;;;;;18.25;100.00;100274.33;125402;1099;102341;-82
2023/07/08 08:33:35;;;;;;;19.93;10.77;;;;;;;18.21;100.00;100277.86;125708;1098;104163;-79
2023/07/08 08:36:07;;;;;;;20.47;11.00;;;;;;;18.17;100.00;100284.08;125622;1099;104272;-81
2023/07/08 08:38:38;;;;;;;18.80;10.10;;;;;;;18.11;100.00;100286.72;125079;1099;104409;-80
2023/07/08 08:41:16;;;;;;;22.00;10.53;;;;;;;18.07;100.00;100290.24;126100;1099;102244;-85
2023/07/08 08:43:49;;;;;;;21.00;11.03;;;;;;;18.07;100.00;100298.20;125931;1099;104192;-81
2023/07/08 08:46:28;;;;;;;17.75;9.90;;;;;;;18.02;100.00;100297.32;125842;1099;104194;-83
2023/07/08 08:49:06;;;;;;;20.37;10.57;;;;;;;17.98;100.00;100303.50;125784;1099;102198;-82
2023/07/08 08:51:37;;;;;;;19.37;10.07;;;;;;;17.93;100.00;100309.67;125959;1098;101925;-81
2023/07/08 08:54:10;;;;;;;17.87;9.57;;;;;;;17.92;100.00;100299.95;125991;1098;103194;-78
2023/07/08 08:56:54;;;;;;;17.33;9.60;;;;;;;17.92;100.00;100299.95;126252;1099;101827;-81
2023/07/08 08:59:35;;;;;;;18.03;10.17;;;;;;;17.92;100.00;100302.61;126220;1099;102031;-80
2023/07/08 09:02:26;;;;;;;16.80;9.63;;;;;;;17.99;100.00;100300.84;125430;1099;104179;-81
2023/07/08 09:05:02;;;;;;;19.50;10.23;;;;;;;18.02;100.00;100303.51;125278;1099;104220;-82
2023/07/08 09:07:43;;;;;;;17.43;10.20;;;;;;;18.01;100.00;100301.72;126094;1099;102012;-81
2023/07/08 09:10:22;;;;;;;18.57;9.77;;;;;;;18.01;100.00;100300.84;125955;1099;101822;-80
2023/07/08 09:12:56;;;;;;;17.27;10.03;;;;;;;18.00;100.00;100302.63;125794;1099;104277;-79
2023/07/08 09:15:28;;;;;;;20.47;9.80;;;;;;;18.02;100.00;100302.63;125594;1099;101997;-81
2023/07/08 09:18:11;;;;;;;18.30;10.30;;;;;;;18.00;100.00;100307.03;124999;1099;104387;-81
2023/07/08 09:20:43;;;;;;;17.30;10.57;;;;;;;17.96;100.00;100309.68;125478;1099;101823;-82
2023/07/08 09:23:22;;;;;;;17.73;9.60;;;;;;;17.93;100.00;100311.45;126202;1099;104294;-83
2023/07/08 09:25:59;;;;;;;18.27;10.67;;;;;;;17.93;100.00;100314.98;124958;1099;103210;-82
2023/07/08 09:28:41;;;;;;;18.23;10.13;;;;;;;17.92;100.00;100321.19;125026;1099;104278;-83
2023/07/08 09:31:23;;;;;;;20.75;11.00;;;;;;;17.95;100.00;100310.58;125420;1099;104437;-83
2023/07/08 09:34:05;;;;;;;18.07;9.90;;;;;;;17.95;100.00;100318.55;125091;1099;104217;-82
2023/07/08 09:36:42;;;;;;;17.83;10.03;;;;;;;17.92;100.00;100323.84;125488;1099;102212;-80
2023/07/08 09:39:15;;;;;;;18.13;10.17;;;;;;;17.93;100.00;100320.28;125650;1099;101913;-82
2023/07/08 09:41:48;;;;;;;17.90;10.40;;;;;;;17.98;100.00;100322.08;125587;1099;104196;-83
2023/07/08 09:44:26;;;;;;;16.63;9.47;;;;;;;17.98;100.00;100325.61;125506;1099;104268;-82
2023/07/08 09:46:59;;;;;;;18.17;9.80;;;;;;;17.98;100.00;100322.95;125766;1099;102130;-83
2023/07/08 09:49:33;;;;;;;18.90;9.90;;;;;;;18.03;100.00;100320.31;125184;1099;104182;-80
2023/07/08 09:52:05;;;;;;;18.13;10.40;;;;;;;18.01;100.00;100325.62;125249;1099;104125;-83
2023/07/08 09:54:36;;;;;;;17.60;9.50;;;;;;;18.02;100.00;100331.84;125666;1099;104182;-82
2023/07/08 09:57:16;;;;;;;17.70;9.33;;;;;;;18.01;100.00;100322.09;125030;1099;104118;-82
2023/07/08 09:59:53;;;;;;;16.87;9.67;;;;;;;17.98;100.00;100332.70;125038;1099;104227;-83
2023/07/08 10:02:39;;;;;;;16.70;9.67;;;;;;;17.96;100.00;100325.60;125740;1099;104188;-80
2023/07/08 10:05:18;;;;;;;16.50;8.60;;;;;;;17.97;100.00;100337.13;125577;1099;102348;-81
2023/07/08 10:07:53;;;;;;;16.40;8.53;;;;;;;17.90;100.00;100325.63;125589;1099;102270;-85
2023/07/08 10:10:31;;;;;;;16.70;8.87;;;;;;;17.85;100.00;100332.63;125040;1099;104259;-81
2023/07/08 10:13:05;;;;;;;16.73;8.40;;;;;;;17.80;100.00;100329.08;126093;1099;104089;-85
2023/07/08 10:15:41;;;;;;;14.00;8.60;;;;;;;17.77;100.00;100329.07;126005;1098;102115;-86
2023/07/08 10:18:17;;;;;;;15.67;8.80;;;;;;;17.72;100.00;100338.79;126091;1099;101989;-81
2023/07/08 10:20:58;;;;;;;17.37;8.50;;;;;;;17.68;100.00;100323.73;125438;1099;104195;-83
2023/07/08 10:23:42;;;;;;;16.97;8.67;;;;;;;17.63;100.00;100331.67;126144;1099;104169;-85
2023/07/08 10:26:22;;;;;;;17.15;8.15;;;;;;;17.60;100.00;100329.00;125800;1099;104243;-82
2023/07/08 10:29:09;;;;;;;16.23;7.67;;;;;;;17.56;100.00;100329.86;125914;1099;101813;-83
2023/07/08 10:31:48;;;;;;;14.87;8.00;;;;;;;17.52;100.00;100336.92;125685;1099;104267;-82
2023/07/08 10:34:35;;;;;;;12.27;7.13;;;;;;;17.49;100.00;100342.22;125837;1099;104169;-82
2023/07/08 10:37:17;;;;;;;17.50;8.03;;;;;;;17.47;100.00;100324.51;125465;1099;101809;-81
2023/07/08 10:40:04;;;;;;;13.93;7.53;;;;;;;17.41;100.00;100315.66;125240;1099;104354;-88
2023/07/08 10:42:45;;;;;;;20.77;8.00;;;;;;;17.47;100.00;100325.42;126286;1099;101833;-81
2023/07/08 10:45:21;;;;;;;15.13;7.90;;;;;;;17.49;100.00;100322.77;126175;1099;104261;-80
2023/07/08 10:48:03;;;;;;;13.07;7.30;;;;;;;17.47;100.00;100320.11;125677;1099;104242;-82
2023/07/08 10:50:52;;;;;;;13.50;7.07;;;;;;;17.45;100.00;100313.89;125661;1099;101872;-82
2023/07/08 10:53:44;;;;;;;13.37;7.47;;;;;;;17.46;100.00;100312.14;125594;1099;104156;-83
2023/07/08 10:56:21;;;;;;;12.83;7.07;;;;;;;17.43;100.00;100315.66;125794;1099;101840;-83
2023/07/08 10:59:27;;;;;;;12.70;6.83;;;;;;;17.42;100.00;100309.48;125580;1099;102036;-82
2023/07/08 11:02:15;;;;;;;12.30;6.77;;;;;;;17.42;100.00;100316.53;125158;1099;102227;-83
2023/07/08 11:04:57;;;;;;;13.87;6.93;;;;;;;17.43;100.00;100310.36;125653;1099;102019;-84
2023/07/08 11:07:37;;;;;;;13.67;6.97;;;;;;;17.43;100.00;100299.75;126563;1098;102351;-82
2023/07/08 11:10:16;;;;;;;13.03;6.40;;;;;;;17.39;100.00;100306.81;125955;1099;104126;-83
2023/07/08 11:12:53;;;;;;;11.53;5.90;;;;;;;17.37;100.00;100311.23;125690;1099;104317;-86
2023/07/08 11:15:30;;;;;;;12.47;6.30;;;;;;;17.34;100.00;100315.61;125462;1099;118676;-83
2023/07/08 11:18:05;;;;;;;10.67;6.43;;;;;;;17.29;100.00;100312.06;125628;1099;102030;-81
2023/07/08 11:20:42;;;;;;;11.93;6.27;;;;;;;17.29;100.00;100310.28;125607;1099;104162;-79